sensor_id;sensor_type;location;lat;lon;timestamp;pressure;altitude;pressure_sealevel;temperature;humidity
52653;BME280;39353;42.864;12.014;2023-06-05T00:00:48;97529.89;;;25.10;52.83
52653;BME280;39353;42.864;12.014;2023-06-05T00:03:29;97529.49;;;25.10;52.96
52653;BME280;39353;42.864;12.014;2023-06-05T00:06:12;97529.48;;;25.09;52.87
52653;BME280;39353;42.864;12.014;2023-06-05T00:08:42;97529.38;;;25.10;52.91
52653;BME280;39353;42.864;12.014;2023-06-05T00:11:09;97528.55;;;25.10;52.83
52653;BME280;39353;42.864;12.014;2023-06-05T00:13:37;97527.34;;;25.09;52.83
52653;BME280;39353;42.864;12.014;2023-06-05T00:16:19;97527.81;;;25.08;52.81
52653;BME280;39353;42.864;12.014;2023-06-05T00:19:00;97527.60;;;25.09;52.85
52653;BME280;39353;42.864;12.014;2023-06-05T00:21:30;97530.41;;;25.09;52.91
52653;BME280;39353;42.864;12.014;2023-06-05T00:23:57;97525.90;;;25.09;52.93
52653;BME280;39353;42.864;12.014;2023-06-05T00:26:25;97525.17;;;25.08;52.95
52653;BME280;39353;42.864;12.014;2023-06-05T00:29:09;97525.45;;;25.08;52.90
52653;BME280;39353;42.864;12.014;2023-06-05T00:31:50;97523.74;;;25.08;52.95
52653;BME280;39353;42.864;12.014;2023-06-05T00:34:17;97522.92;;;25.08;52.95
52653;BME280;39353;42.864;12.014;2023-06-05T00:36:46;97517.48;;;25.08;52.97
52653;BME280;39353;42.864;12.014;2023-06-05T00:39:18;97518.30;;;25.07;53.01
52653;BME280;39353;42.864;12.014;2023-06-05T00:41:46;97515.40;;;25.07;52.92
52653;BME280;39353;42.864;12.014;2023-06-05T00:44:14;97515.15;;;25.06;52.98
52653;BME280;39353;42.864;12.014;2023-06-05T00:46:41;97512.41;;;25.06;52.95
52653;BME280;39353;42.864;12.014;2023-06-05T00:49:11;97511.05;;;25.07;52.97
52653;BME280;39353;42.864;12.014;2023-06-05T00:51:54;97506.87;;;25.07;52.92
52653;BME280;39353;42.864;12.014;2023-06-05T00:54:21;97505.27;;;25.06;53.19
52653;BME280;39353;42.864;12.014;2023-06-05T00:56:50;97510.17;;;25.07;53.10
52653;BME280;39353;42.864;12.014;2023-06-05T00:59:21;97509.17;;;25.06;53.02
52653;BME280;39353;42.864;12.014;2023-06-05T01:02:04;97509.93;;;25.06;52.93
52653;BME280;39353;42.864;12.014;2023-06-05T01:04:33;97511.58;;;25.06;52.94
52653;BME280;39353;42.864;12.014;2023-06-05T01:07:17;97509.65;;;25.05;53.04
52653;BME280;39353;42.864;12.014;2023-06-05T01:09:46;97508.77;;;25.05;53.02
52653;BME280;39353;42.864;12.014;2023-06-05T01:15:07;97510.47;;;25.05;53.04
52653;BME280;39353;42.864;12.014;2023-06-05T01:17:38;97505.52;;;25.05;52.90
52653;BME280;39353;42.864;12.014;2023-06-05T01:20:09;97504.80;;;25.05;52.99
52653;BME280;39353;42.864;12.014;2023-06-05T01:22:36;97506.99;;;25.04;52.91
52653;BME280;39353;42.864;12.014;2023-06-05T01:25:08;97510.84;;;25.04;53.00
52653;BME280;39353;42.864;12.014;2023-06-05T01:27:50;97512.27;;;25.04;53.06
52653;BME280;39353;42.864;12.014;2023-06-05T01:30:32;97511.17;;;25.04;52.95
52653;BME280;39353;42.864;12.014;2023-06-05T01:33:09;97512.70;;;25.04;53.00
52653;BME280;39353;42.864;12.014;2023-06-05T01:35:54;97514.51;;;25.04;53.03
52653;BME280;39353;42.864;12.014;2023-06-05T01:38:26;97516.65;;;25.04;52.97
52653;BME280;39353;42.864;12.014;2023-06-05T01:41:10;97518.67;;;25.03;53.03
52653;BME280;39353;42.864;12.014;2023-06-05T01:43:48;97516.42;;;25.03;53.12
52653;BME280;39353;42.864;12.014;2023-06-05T01:46:20;97519.55;;;25.03;53.14
52653;BME280;39353;42.864;12.014;2023-06-05T01:49:01;97521.21;;;25.03;53.00
52653;BME280;39353;42.864;12.014;2023-06-05T01:51:43;97521.91;;;25.03;53.02
52653;BME280;39353;42.864;12.014;2023-06-05T01:54:11;97517.64;;;25.03;53.07
52653;BME280;39353;42.864;12.014;2023-06-05T01:56:39;97520.23;;;25.03;53.12
52653;BME280;39353;42.864;12.014;2023-06-05T01:59:20;97519.06;;;25.02;53.19
52653;BME280;39353;42.864;12.014;2023-06-05T02:02:02;97520.21;;;25.01;53.19
52653;BME280;39353;42.864;12.014;2023-06-05T02:04:45;97519.50;;;25.01;53.16
52653;BME280;39353;42.864;12.014;2023-06-05T02:07:15;97514.33;;;25.01;53.09
52653;BME280;39353;42.864;12.014;2023-06-05T02:09:56;97516.58;;;25.01;53.13
52653;BME280;39353;42.864;12.014;2023-06-05T02:12:30;97510.27;;;25.01;53.15
52653;BME280;39353;42.864;12.014;2023-06-05T02:14:57;97508.23;;;25.01;53.22
52653;BME280;39353;42.864;12.014;2023-06-05T02:17:37;97501.14;;;25.00;53.23
52653;BME280;39353;42.864;12.014;2023-06-05T02:20:23;97500.48;;;25.00;53.12
52653;BME280;39353;42.864;12.014;2023-06-05T02:22:51;97497.79;;;25.00;53.20
52653;BME280;39353;42.864;12.014;2023-06-05T02:25:21;97502.89;;;25.00;53.05
52653;BME280;39353;42.864;12.014;2023-06-05T02:27:51;97497.90;;;25.00;53.26
52653;BME280;39353;42.864;12.014;2023-06-05T02:30:33;97497.41;;;25.00;53.02
52653;BME280;39353;42.864;12.014;2023-06-05T02:33:15;97505.19;;;24.99;53.12
52653;BME280;39353;42.864;12.014;2023-06-05T02:35:46;97512.27;;;24.99;53.17
52653;BME280;39353;42.864;12.014;2023-06-05T02:38:15;97516.17;;;24.99;53.24
52653;BME280;39353;42.864;12.014;2023-06-05T02:40:44;97512.66;;;24.99;53.12
52653;BME280;39353;42.864;12.014;2023-06-05T02:43:16;97507.59;;;24.98;53.32
52653;BME280;39353;42.864;12.014;2023-06-05T02:45:46;97507.59;;;24.98;53.20
52653;BME280;39353;42.864;12.014;2023-06-05T02:48:28;97503.63;;;24.98;53.24
52653;BME280;39353;42.864;12.014;2023-06-05T02:50:59;97501.64;;;24.97;53.27
52653;BME280;39353;42.864;12.014;2023-06-05T02:53:40;97492.20;;;24.97;53.17
52653;BME280;39353;42.864;12.014;2023-06-05T02:56:22;97489.63;;;24.97;53.25
52653;BME280;39353;42.864;12.014;2023-06-05T02:59:07;97486.27;;;24.97;53.24
52653;BME280;39353;42.864;12.014;2023-06-05T03:01:52;97487.86;;;24.97;53.34
52653;BME280;39353;42.864;12.014;2023-06-05T03:04:19;97488.09;;;24.96;53.22
52653;BME280;39353;42.864;12.014;2023-06-05T03:07:11;97487.40;;;24.96;53.33
52653;BME280;39353;42.864;12.014;2023-06-05T03:09:57;97476.96;;;24.95;53.29
52653;BME280;39353;42.864;12.014;2023-06-05T03:12:39;97474.13;;;24.96;53.18
52653;BME280;39353;42.864;12.014;2023-06-05T03:15:21;97469.62;;;24.95;53.19
52653;BME280;39353;42.864;12.014;2023-06-05T03:18:03;97471.38;;;24.96;53.19
52653;BME280;39353;42.864;12.014;2023-06-05T03:20:32;97468.46;;;24.95;53.18
52653;BME280;39353;42.864;12.014;2023-06-05T03:23:15;97468.52;;;24.95;53.23
52653;BME280;39353;42.864;12.014;2023-06-05T03:26:00;97464.98;;;24.94;53.22
52653;BME280;39353;42.864;12.014;2023-06-05T03:28:30;97467.40;;;24.94;53.19
52653;BME280;39353;42.864;12.014;2023-06-05T03:31:00;97462.07;;;24.93;53.12
52653;BME280;39353;42.864;12.014;2023-06-05T03:33:32;97460.64;;;24.94;53.22
52653;BME280;39353;42.864;12.014;2023-06-05T03:35:59;97458.34;;;24.94;53.18
52653;BME280;39353;42.864;12.014;2023-06-05T03:38:27;97460.64;;;24.93;53.32
52653;BME280;39353;42.864;12.014;2023-06-05T03:41:09;97457.27;;;24.92;53.36
52653;BME280;39353;42.864;12.014;2023-06-05T03:43:37;97455.96;;;24.93;53.34
52653;BME280;39353;42.864;12.014;2023-06-05T03:46:19;97454.20;;;24.92;53.29
52653;BME280;39353;42.864;12.014;2023-06-05T03:49:02;97457.55;;;24.93;53.26
52653;BME280;39353;42.864;12.014;2023-06-05T03:51:36;97452.77;;;24.92;53.29
52653;BME280;39353;42.864;12.014;2023-06-05T03:54:04;97447.28;;;24.92;53.28
52653;BME280;39353;42.864;12.014;2023-06-05T03:56:35;97448.33;;;24.92;53.23
52653;BME280;39353;42.864;12.014;2023-06-05T03:59:23;97450.30;;;24.92;53.32
52653;BME280;39353;42.864;12.014;2023-06-05T04:02:10;97450.45;;;24.92;53.26
52653;BME280;39353;42.864;12.014;2023-06-05T04:04:51;97446.98;;;24.91;53.30
52653;BME280;39353;42.864;12.014;2023-06-05T04:07:20;97443.33;;;24.92;53.27
52653;BME280;39353;42.864;12.014;2023-06-05T04:09:47;97441.94;;;24.91;53.29
52653;BME280;39353;42.864;12.014;2023-06-05T04:12:20;97441.50;;;24.91;53.33
52653;BME280;39353;42.864;12.014;2023-06-05T04:14:49;97438.88;;;24.92;53.27
52653;BME280;39353;42.864;12.014;2023-06-05T04:17:30;97444.58;;;24.92;53.32
52653;BME280;39353;42.864;12.014;2023-06-05T04:19:57;97443.38;;;24.91;53.18
52653;BME280;39353;42.864;12.014;2023-06-05T04:22:38;97446.05;;;24.90;53.34
52653;BME280;39353;42.864;12.014;2023-06-05T04:25:06;97440.95;;;24.91;53.27
52653;BME280;39353;42.864;12.014;2023-06-05T04:27:38;97444.63;;;24.90;53.26
52653;BME280;39353;42.864;12.014;2023-06-05T04:30:19;97441.45;;;24.91;53.37
52653;BME280;39353;42.864;12.014;2023-06-05T04:33:02;97437.88;;;24.90;53.30
52653;BME280;39353;42.864;12.014;2023-06-05T04:35:32;97436.44;;;24.90;53.36
52653;BME280;39353;42.864;12.014;2023-06-05T04:38:15;97439.84;;;24.90;53.20
52653;BME280;39353;42.864;12.014;2023-06-05T04:40:48;97437.32;;;24.90;53.34
52653;BME280;39353;42.864;12.014;2023-06-05T04:43:29;97434.63;;;24.90;53.22
52653;BME280;39353;42.864;12.014;2023-06-05T04:45:56;97435.56;;;24.90;53.26
52653;BME280;39353;42.864;12.014;2023-06-05T04:48:23;97443.85;;;24.90;53.23
52653;BME280;39353;42.864;12.014;2023-06-05T04:51:04;97448.30;;;24.89;53.22
52653;BME280;39353;42.864;12.014;2023-06-05T04:53:45;97446.42;;;24.89;53.21
52653;BME280;39353;42.864;12.014;2023-06-05T04:56:26;97443.80;;;24.89;53.18
52653;BME280;39353;42.864;12.014;2023-06-05T04:58:54;97442.52;;;24.89;53.36
52653;BME280;39353;42.864;12.014;2023-06-05T05:01:22;97445.17;;;24.89;53.30
52653;BME280;39353;42.864;12.014;2023-06-05T05:04:06;97442.26;;;24.89;53.36
52653;BME280;39353;42.864;12.014;2023-06-05T05:06:47;97441.33;;;24.89;53.28
52653;BME280;39353;42.864;12.014;2023-06-05T05:09:28;97445.00;;;24.89;53.34
52653;BME280;39353;42.864;12.014;2023-06-05T05:12:10;97447.84;;;24.89;53.42
52653;BME280;39353;42.864;12.014;2023-06-05T05:14:52;97447.73;;;24.88;53.28
52653;BME280;39353;42.864;12.014;2023-06-05T05:17:33;97449.02;;;24.86;53.28
52653;BME280;39353;42.864;12.014;2023-06-05T05:20:01;97450.21;;;24.86;53.46
52653;BME280;39353;42.864;12.014;2023-06-05T05:22:30;97447.52;;;24.84;53.44
52653;BME280;39353;42.864;12.014;2023-06-05T05:24:58;97448.50;;;24.84;53.41
52653;BME280;39353;42.864;12.014;2023-06-05T05:27:26;97448.83;;;24.84;53.39
52653;BME280;39353;42.864;12.014;2023-06-05T05:29:54;97457.11;;;24.84;53.47
52653;BME280;39353;42.864;12.014;2023-06-05T05:32:36;97452.88;;;24.83;53.54
52653;BME280;39353;42.864;12.014;2023-06-05T05:35:17;97452.66;;;24.83;53.33
52653;BME280;39353;42.864;12.014;2023-06-05T05:37:44;97452.89;;;24.84;53.52
52653;BME280;39353;42.864;12.014;2023-06-05T05:40:25;97452.51;;;24.84;53.54
52653;BME280;39353;42.864;12.014;2023-06-05T05:43:09;97457.61;;;24.84;53.41
52653;BME280;39353;42.864;12.014;2023-06-05T05:45:37;97461.89;;;24.84;53.49
52653;BME280;39353;42.864;12.014;2023-06-05T05:48:20;97463.60;;;24.85;53.40
52653;BME280;39353;42.864;12.014;2023-06-05T05:51:05;97462.08;;;24.85;53.57
52653;BME280;39353;42.864;12.014;2023-06-05T05:53:35;97463.29;;;24.85;53.39
52653;BME280;39353;42.864;12.014;2023-06-05T05:56:17;97463.66;;;24.85;53.53
52653;BME280;39353;42.864;12.014;2023-06-05T05:58:48;97464.34;;;24.86;53.31
52653;BME280;39353;42.864;12.014;2023-06-05T06:01:17;97460.82;;;24.86;53.44
52653;BME280;39353;42.864;12.014;2023-06-05T06:03:47;97466.64;;;24.86;53.35
52653;BME280;39353;42.864;12.014;2023-06-05T06:06:16;97468.14;;;24.87;53.48
52653;BME280;39353;42.864;12.014;2023-06-05T06:08:46;97470.94;;;24.87;53.46
52653;BME280;39353;42.864;12.014;2023-06-05T06:11:27;97472.93;;;24.90;53.38
52653;BME280;39353;42.864;12.014;2023-06-05T06:13:55;97476.32;;;24.92;53.30
52653;BME280;39353;42.864;12.014;2023-06-05T06:16:37;97479.52;;;24.93;53.45
52653;BME280;39353;42.864;12.014;2023-06-05T06:19:18;97485.05;;;24.93;53.32
52653;BME280;39353;42.864;12.014;2023-06-05T06:21:50;97484.01;;;24.92;53.24
52653;BME280;39353;42.864;12.014;2023-06-05T06:24:18;97488.36;;;24.93;53.29
52653;BME280;39353;42.864;12.014;2023-06-05T06:27:03;97490.70;;;24.95;53.38
52653;BME280;39353;42.864;12.014;2023-06-05T06:29:30;97489.28;;;24.96;53.14
52653;BME280;39353;42.864;12.014;2023-06-05T06:32:12;97493.98;;;24.95;53.34
52653;BME280;39353;42.864;12.014;2023-06-05T06:34:39;97493.98;;;24.95;53.38
52653;BME280;39353;42.864;12.014;2023-06-05T06:37:06;97498.94;;;24.93;53.43
52653;BME280;39353;42.864;12.014;2023-06-05T06:39:47;97500.39;;;24.90;53.44
52653;BME280;39353;42.864;12.014;2023-06-05T06:42:28;97499.99;;;24.90;53.36
52653;BME280;39353;42.864;12.014;2023-06-05T06:45:08;97505.04;;;24.89;53.32
52653;BME280;39353;42.864;12.014;2023-06-05T06:47:49;97508.77;;;24.89;53.52
52653;BME280;39353;42.864;12.014;2023-06-05T06:50:16;97509.03;;;24.88;53.07
52653;BME280;39353;42.864;12.014;2023-06-05T06:52:43;97509.98;;;24.84;53.00
52653;BME280;39353;42.864;12.014;2023-06-05T06:55:11;97514.77;;;24.83;53.05
52653;BME280;39353;42.864;12.014;2023-06-05T06:57:40;97520.13;;;24.81;53.05
52653;BME280;39353;42.864;12.014;2023-06-05T07:00:21;97514.88;;;24.79;53.07
52653;BME280;39353;42.864;12.014;2023-06-05T07:03:03;97512.91;;;24.69;52.17
52653;BME280;39353;42.864;12.014;2023-06-05T07:05:46;97511.64;;;24.55;52.40
52653;BME280;39353;42.864;12.014;2023-06-05T07:08:13;97508.27;;;24.54;52.72
52653;BME280;39353;42.864;12.014;2023-06-05T07:10:41;97508.94;;;24.58;52.82
52653;BME280;39353;42.864;12.014;2023-06-05T07:13:08;97510.64;;;24.62;53.11
52653;BME280;39353;42.864;12.014;2023-06-05T07:15:51;97509.66;;;24.66;53.16
52653;BME280;39353;42.864;12.014;2023-06-05T07:18:19;97509.89;;;24.70;53.22
52653;BME280;39353;42.864;12.014;2023-06-05T07:20:47;97507.95;;;24.73;53.28
52653;BME280;39353;42.864;12.014;2023-06-05T07:23:28;97512.50;;;24.78;53.13
52653;BME280;39353;42.864;12.014;2023-06-05T07:26:12;97510.96;;;24.81;53.33
52653;BME280;39353;42.864;12.014;2023-06-05T07:28:44;97513.13;;;24.86;53.31
52653;BME280;39353;42.864;12.014;2023-06-05T07:31:25;97511.55;;;24.87;53.35
52653;BME280;39353;42.864;12.014;2023-06-05T07:34:07;97510.44;;;24.69;52.80
52653;BME280;39353;42.864;12.014;2023-06-05T07:36:35;97506.10;;;24.48;52.86
52653;BME280;39353;42.864;12.014;2023-06-05T07:39:04;97504.20;;;24.35;53.38
52653;BME280;39353;42.864;12.014;2023-06-05T07:41:33;97508.27;;;24.25;53.63
52653;BME280;39353;42.864;12.014;2023-06-05T07:44:18;97499.95;;;24.27;53.74
52653;BME280;39353;42.864;12.014;2023-06-05T07:46:47;97496.73;;;24.35;53.64
52653;BME280;39353;42.864;12.014;2023-06-05T07:49:30;97497.77;;;24.44;53.60
52653;BME280;39353;42.864;12.014;2023-06-05T07:52:00;97497.60;;;24.55;53.86
52653;BME280;39353;42.864;12.014;2023-06-05T07:54:27;97499.38;;;24.61;54.41
52653;BME280;39353;42.864;12.014;2023-06-05T07:56:55;97498.96;;;24.58;53.95
52653;BME280;39353;42.864;12.014;2023-06-05T07:59:38;97500.48;;;24.53;53.31
52653;BME280;39353;42.864;12.014;2023-06-05T08:02:20;97494.50;;;24.50;53.53
52653;BME280;39353;42.864;12.014;2023-06-05T08:05:01;97494.18;;;24.54;53.64
52653;BME280;39353;42.864;12.014;2023-06-05T08:07:44;97493.06;;;24.60;53.49
52653;BME280;39353;42.864;12.014;2023-06-05T08:10:25;97497.06;;;24.63;53.32
52653;BME280;39353;42.864;12.014;2023-06-05T08:13:07;97495.98;;;24.63;53.38
52653;BME280;39353;42.864;12.014;2023-06-05T08:15:36;97497.08;;;24.68;53.35
52653;BME280;39353;42.864;12.014;2023-06-05T08:18:03;97493.34;;;24.70;53.27
52653;BME280;39353;42.864;12.014;2023-06-05T08:20:30;97496.51;;;24.75;53.33
52653;BME280;39353;42.864;12.014;2023-06-05T08:23:17;97495.38;;;24.81;53.29
52653;BME280;39353;42.864;12.014;2023-06-05T08:25:58;97492.71;;;24.82;53.31
52653;BME280;39353;42.864;12.014;2023-06-05T08:28:41;97491.55;;;24.82;53.49
52653;BME280;39353;42.864;12.014;2023-06-05T08:31:22;97494.00;;;24.81;54.10
52653;BME280;39353;42.864;12.014;2023-06-05T08:33:50;97492.73;;;24.76;53.90
52653;BME280;39353;42.864;12.014;2023-06-05T08:36:32;97489.73;;;24.73;54.00
52653;BME280;39353;42.864;12.014;2023-06-05T08:39:02;97487.77;;;24.75;54.08
52653;BME280;39353;42.864;12.014;2023-06-05T08:41:32;97490.29;;;24.78;53.75
52653;BME280;39353;42.864;12.014;2023-06-05T08:44:00;97492.14;;;24.78;53.77
52653;BME280;39353;42.864;12.014;2023-06-05T08:46:42;97493.02;;;24.80;53.73
52653;BME280;39353;42.864;12.014;2023-06-05T08:49:17;97492.54;;;24.82;53.68
52653;BME280;39353;42.864;12.014;2023-06-05T08:52:06;97487.75;;;24.85;53.65
52653;BME280;39353;42.864;12.014;2023-06-05T08:54:38;97483.35;;;24.84;53.43
52653;BME280;39353;42.864;12.014;2023-06-05T08:57:07;97484.46;;;24.81;53.44
52653;BME280;39353;42.864;12.014;2023-06-05T08:59:37;97482.89;;;24.75;53.54
52653;BME280;39353;42.864;12.014;2023-06-05T09:02:05;97484.00;;;24.63;53.45
52653;BME280;39353;42.864;12.014;2023-06-05T09:04:33;97483.20;;;24.50;53.69
52653;BME280;39353;42.864;12.014;2023-06-05T09:07:00;97480.10;;;24.41;54.61
52653;BME280;39353;42.864;12.014;2023-06-05T09:09:28;97477.66;;;24.35;55.13
52653;BME280;39353;42.864;12.014;2023-06-05T09:12:07;97473.73;;;24.30;55.16
52653;BME280;39353;42.864;12.014;2023-06-05T09:14:39;97476.25;;;24.22;55.00
52653;BME280;39353;42.864;12.014;2023-06-05T09:17:21;97479.90;;;24.16;54.95
52653;BME280;39353;42.864;12.014;2023-06-05T09:20:04;97476.55;;;24.08;54.56
52653;BME280;39353;42.864;12.014;2023-06-05T09:22:35;97477.09;;;24.02;54.37
52653;BME280;39353;42.864;12.014;2023-06-05T09:25:16;97476.80;;;23.92;54.63
52653;BME280;39353;42.864;12.014;2023-06-05T09:27:44;97477.45;;;23.86;54.88
52653;BME280;39353;42.864;12.014;2023-06-05T09:30:33;97473.88;;;23.82;55.39
52653;BME280;39353;42.864;12.014;2023-06-05T09:33:17;97472.12;;;23.85;55.34
52653;BME280;39353;42.864;12.014;2023-06-05T09:36:04;97468.92;;;23.90;55.24
52653;BME280;39353;42.864;12.014;2023-06-05T09:38:34;97473.58;;;23.95;55.08
52653;BME280;39353;42.864;12.014;2023-06-05T09:41:12;97473.05;;;23.96;54.70
52653;BME280;39353;42.864;12.014;2023-06-05T09:44:06;97464.50;;;23.88;54.94
52653;BME280;39353;42.864;12.014;2023-06-05T09:52:09;97472.35;;;24.00;54.92
52653;BME280;39353;42.864;12.014;2023-06-05T09:54:55;97468.34;;;24.02;54.76
52653;BME280;39353;42.864;12.014;2023-06-05T09:57:42;97463.45;;;24.05;55.05
52653;BME280;39353;42.864;12.014;2023-06-05T10:00:24;97464.95;;;24.10;55.39
52653;BME280;39353;42.864;12.014;2023-06-05T10:03:10;97465.18;;;24.14;55.79
52653;BME280;39353;42.864;12.014;2023-06-05T10:05:44;97456.93;;;24.05;55.03
52653;BME280;39353;42.864;12.014;2023-06-05T10:08:28;97457.36;;;24.02;55.49
52653;BME280;39353;42.864;12.014;2023-06-05T10:11:10;97458.04;;;24.03;55.28
52653;BME280;39353;42.864;12.014;2023-06-05T10:13:39;97453.05;;;24.03;55.10
52653;BME280;39353;42.864;12.014;2023-06-05T10:16:13;97448.34;;;24.06;55.14
52653;BME280;39353;42.864;12.014;2023-06-05T10:18:47;97445.50;;;24.07;55.20
52653;BME280;39353;42.864;12.014;2023-06-05T10:21:17;97446.85;;;24.06;54.50
52653;BME280;39353;42.864;12.014;2023-06-05T10:24:02;97444.70;;;24.02;54.35
52653;BME280;39353;42.864;12.014;2023-06-05T10:40:54;97432.63;;;24.10;54.56
52653;BME280;39353;42.864;12.014;2023-06-05T10:43:46;97436.45;;;24.10;54.25
52653;BME280;39353;42.864;12.014;2023-06-05T10:51:53;97430.82;;;23.95;54.31
52653;BME280;39353;42.864;12.014;2023-06-05T10:57:04;97422.31;;;23.95;54.89
52653;BME280;39353;42.864;12.014;2023-06-05T10:59:35;97421.02;;;24.04;55.81
52653;BME280;39353;42.864;12.014;2023-06-05T11:07:29;97419.11;;;24.41;56.61
52653;BME280;39353;42.864;12.014;2023-06-05T11:10:15;97417.71;;;24.50;56.97
52653;BME280;39353;42.864;12.014;2023-06-05T11:13:01;97410.31;;;24.55;57.21
52653;BME280;39353;42.864;12.014;2023-06-05T11:17:55;97410.53;;;24.62;56.64
52653;BME280;39353;42.864;12.014;2023-06-05T11:25:45;97410.30;;;24.66;56.95
52653;BME280;39353;42.864;12.014;2023-06-05T11:28:13;97420.70;;;24.71;58.15
52653;BME280;39353;42.864;12.014;2023-06-05T11:30:55;97423.56;;;24.79;59.09
52653;BME280;39353;42.864;12.014;2023-06-05T11:33:24;97422.11;;;24.84;59.25
52653;BME280;39353;42.864;12.014;2023-06-05T11:36:12;97420.94;;;24.87;58.91
52653;BME280;39353;42.864;12.014;2023-06-05T11:38:53;97417.36;;;24.92;58.83
52653;BME280;39353;42.864;12.014;2023-06-05T11:41:21;97418.52;;;24.96;58.83
52653;BME280;39353;42.864;12.014;2023-06-05T11:43:48;97416.30;;;24.99;58.80
52653;BME280;39353;42.864;12.014;2023-06-05T11:46:16;97416.45;;;25.01;58.63
52653;BME280;39353;42.864;12.014;2023-06-05T11:48:45;97416.23;;;25.03;58.39
52653;BME280;39353;42.864;12.014;2023-06-05T11:51:13;97421.91;;;25.05;58.37
52653;BME280;39353;42.864;12.014;2023-06-05T11:53:56;97420.64;;;25.05;58.22
52653;BME280;39353;42.864;12.014;2023-06-05T11:56:25;97416.04;;;25.05;58.20
52653;BME280;39353;42.864;12.014;2023-06-05T11:59:09;97412.95;;;25.03;57.70
52653;BME280;39353;42.864;12.014;2023-06-05T12:01:50;97413.09;;;24.96;57.22
52653;BME280;39353;42.864;12.014;2023-06-05T12:04:23;97406.16;;;24.92;58.18
52653;BME280;39353;42.864;12.014;2023-06-05T12:07:05;97400.07;;;24.87;57.21
52653;BME280;39353;42.864;12.014;2023-06-05T12:09:51;97394.55;;;24.84;57.48
52653;BME280;39353;42.864;12.014;2023-06-05T12:12:33;97382.11;;;24.85;57.28
52653;BME280;39353;42.864;12.014;2023-06-05T12:15:16;97380.27;;;24.88;57.20
52653;BME280;39353;42.864;12.014;2023-06-05T12:17:57;97379.79;;;24.94;57.14
52653;BME280;39353;42.864;12.014;2023-06-05T12:20:41;97379.96;;;24.98;56.83
52653;BME280;39353;42.864;12.014;2023-06-05T12:23:22;97377.59;;;25.03;56.56
52653;BME280;39353;42.864;12.014;2023-06-05T12:26:01;97378.69;;;25.08;56.56
52653;BME280;39353;42.864;12.014;2023-06-05T12:28:31;97379.73;;;25.13;56.33
52653;BME280;39353;42.864;12.014;2023-06-05T12:31:35;97383.19;;;25.16;56.32
52653;BME280;39353;42.864;12.014;2023-06-05T12:34:03;97390.14;;;25.21;56.11
52653;BME280;39353;42.864;12.014;2023-06-05T12:36:38;97392.87;;;25.23;56.14
52653;BME280;39353;42.864;12.014;2023-06-05T12:39:08;97388.60;;;25.25;55.95
52653;BME280;39353;42.864;12.014;2023-06-05T12:41:50;97385.89;;;25.28;55.93
52653;BME280;39353;42.864;12.014;2023-06-05T12:44:31;97393.16;;;25.30;55.91
52653;BME280;39353;42.864;12.014;2023-06-05T12:47:12;97393.75;;;25.34;55.79
52653;BME280;39353;42.864;12.014;2023-06-05T12:49:39;97399.31;;;25.35;55.92
52653;BME280;39353;42.864;12.014;2023-06-05T12:52:09;97397.58;;;25.37;55.75
52653;BME280;39353;42.864;12.014;2023-06-05T12:54:37;97392.80;;;25.38;55.71
52653;BME280;39353;42.864;12.014;2023-06-05T12:57:05;97389.86;;;25.39;55.53
52653;BME280;39353;42.864;12.014;2023-06-05T12:59:34;97391.25;;;25.41;55.55
52653;BME280;39353;42.864;12.014;2023-06-05T13:02:09;97390.11;;;25.44;55.58
52653;BME280;39353;42.864;12.014;2023-06-05T13:04:36;97392.95;;;25.50;55.59
52653;BME280;39353;42.864;12.014;2023-06-05T13:07:18;97394.07;;;25.52;55.54
52653;BME280;39353;42.864;12.014;2023-06-05T13:09:46;97400.40;;;25.52;55.56
52653;BME280;39353;42.864;12.014;2023-06-05T13:12:14;97404.77;;;25.54;55.50
52653;BME280;39353;42.864;12.014;2023-06-05T13:14:40;97403.70;;;25.52;55.03
52653;BME280;39353;42.864;12.014;2023-06-05T13:17:08;97404.64;;;25.48;54.93
52653;BME280;39353;42.864;12.014;2023-06-05T13:19:35;97398.52;;;25.47;55.06
52653;BME280;39353;42.864;12.014;2023-06-05T13:22:02;97393.91;;;25.47;54.84
52653;BME280;39353;42.864;12.014;2023-06-05T13:24:30;97388.80;;;25.45;54.75
52653;BME280;39353;42.864;12.014;2023-06-05T13:26:58;97387.81;;;25.46;54.58
52653;BME280;39353;42.864;12.014;2023-06-05T13:29:25;97383.13;;;25.44;54.41
52653;BME280;39353;42.864;12.014;2023-06-05T13:31:52;97383.06;;;25.45;54.37
52653;BME280;39353;42.864;12.014;2023-06-05T13:34:20;97386.55;;;25.46;54.29
52653;BME280;39353;42.864;12.014;2023-06-05T13:37:01;97391.17;;;25.47;54.25
52653;BME280;39353;42.864;12.014;2023-06-05T13:39:29;97395.47;;;25.49;54.03
52653;BME280;39353;42.864;12.014;2023-06-05T13:42:13;97396.13;;;25.43;53.38
52653;BME280;39353;42.864;12.014;2023-06-05T13:44:42;97393.48;;;25.39;53.62
52653;BME280;39353;42.864;12.014;2023-06-05T13:47:10;97395.70;;;25.36;53.83
52653;BME280;39353;42.864;12.014;2023-06-05T13:49:51;97390.60;;;25.32;53.66
52653;BME280;39353;42.864;12.014;2023-06-05T13:52:21;97395.58;;;25.31;53.33
52653;BME280;39353;42.864;12.014;2023-06-05T13:55:04;97395.17;;;25.29;53.67
52653;BME280;39353;42.864;12.014;2023-06-05T13:57:48;97393.48;;;25.28;53.59
52653;BME280;39353;42.864;12.014;2023-06-05T14:00:29;97392.16;;;25.29;53.48
52653;BME280;39353;42.864;12.014;2023-06-05T14:02:58;97388.71;;;25.30;53.57
52653;BME280;39353;42.864;12.014;2023-06-05T14:05:39;97385.91;;;25.31;53.37
52653;BME280;39353;42.864;12.014;2023-06-05T14:08:20;97390.83;;;25.32;53.40
52653;BME280;39353;42.864;12.014;2023-06-05T14:10:48;97394.02;;;25.33;53.49
52653;BME280;39353;42.864;12.014;2023-06-05T14:13:30;97388.20;;;25.33;53.42
52653;BME280;39353;42.864;12.014;2023-06-05T14:16:11;97390.73;;;25.34;53.48